CCR5 weather

Cline River Heliport
Cline River, Alberta, Canada

Public forecast

Using degrees Celsius for public forecast. Weather courtesy of forecast.io.

Closest aviation weather report (METAR) to Cline River Heliport

Closest report is Golden Airport, 56.0 nm (103.8 km) SSW. Retrieved 2020/06/05 00:00 UTC (31 minutes ago):

CYGE 050000Z 33007KT 290V010 20SM VCSH BKN063CB BKN140 16/02 A2993 RMK CB5AC1 SH N-E CB N LAST STFD OBS/NEXT 051200Z SLP145 DENSITY ALT 3300FT

Closest aviation forecast (TAF) to Cline River Heliport

Closest forecast is Red Deer Regional Airport, 95.2 nm (176.2 km) E. Retrieved 2020-06-05 00:42 UTC (0 seconds ago):

TAF CYQF 042341Z 0500/0512 31005KT P6SM SCT070 FM050800 22005KT P6SM FEW060 RMK NXT FCST BY 050600Z